createdAt,value
2022-11-22T00:00:31.992Z,83.55
2022-11-22T00:05:35.105Z,84.21
2022-11-22T00:10:39.319Z,85.21
2022-11-22T00:15:42.024Z,85.76
2022-11-22T00:20:44.739Z,85.85
2022-11-22T00:25:48.980Z,85.88
2022-11-22T00:30:52.514Z,85.73
2022-11-22T00:35:55.286Z,86.03
2022-11-22T00:40:59.370Z,85.80
2022-11-22T00:46:02.491Z,85.79
2022-11-22T00:51:05.438Z,85.97
2022-11-22T00:56:10.688Z,85.63
2022-11-22T01:01:13.512Z,85.63
2022-11-22T01:06:16.403Z,85.65
2022-11-22T01:11:20.624Z,85.38
2022-11-22T01:16:23.352Z,85.60
2022-11-22T01:21:26.111Z,85.56
2022-11-22T01:26:30.221Z,85.86
2022-11-22T01:31:33.375Z,85.41
2022-11-22T01:36:36.217Z,86.17
2022-11-22T01:41:40.410Z,85.91
2022-11-22T01:46:43.449Z,85.89
2022-11-22T01:51:51.449Z,85.83
2022-11-22T01:56:58.996Z,85.87
2022-11-22T02:02:03.282Z,85.77
2022-11-22T02:07:12.180Z,85.82
2022-11-22T02:12:18.851Z,85.70
2022-11-22T02:17:21.622Z,85.16
2022-11-22T02:22:32.278Z,85.13
2022-11-22T02:27:36.436Z,85.66
2022-11-22T02:32:39.199Z,85.34
2022-11-22T02:37:41.974Z,84.69
2022-11-22T02:42:51.722Z,84.96
2022-11-22T02:47:54.526Z,84.76
2022-11-22T02:52:57.272Z,84.70
2022-11-22T02:58:01.515Z,84.58
2022-11-22T03:03:04.344Z,84.62
2022-11-22T03:08:07.274Z,84.87
2022-11-22T03:13:11.388Z,85.09
2022-11-22T03:18:14.219Z,84.88
2022-11-22T03:23:17.131Z,85.32
2022-11-22T03:28:21.203Z,85.43
2022-11-22T03:33:23.963Z,85.85
2022-11-22T03:38:26.779Z,86.12
2022-11-22T03:43:30.987Z,86.30
2022-11-22T03:48:34.699Z,86.41
2022-11-22T03:53:38.032Z,86.50
2022-11-22T03:58:42.151Z,86.57
2022-11-22T04:03:44.975Z,86.74
2022-11-22T04:08:47.900Z,86.86
2022-11-22T04:14:09.428Z,87.31
2022-11-22T04:19:12.283Z,87.45
2022-11-22T04:24:32.929Z,87.70
2022-11-22T04:29:37.079Z,87.99
2022-11-22T04:34:39.862Z,88.07
2022-11-22T04:39:42.654Z,87.83
2022-11-22T04:44:46.910Z,88.08
2022-11-22T04:49:49.664Z,88.11
2022-11-22T04:54:52.425Z,88.32
2022-11-22T04:59:56.554Z,88.94
2022-11-22T05:04:59.321Z,88.79
2022-11-22T05:10:02.082Z,88.82
2022-11-22T05:15:07.363Z,89.32
2022-11-22T05:20:11.556Z,88.65
2022-11-22T05:25:14.374Z,88.50
2022-11-22T05:30:19.572Z,88.90
2022-11-22T05:35:22.435Z,88.79
2022-11-22T05:40:25.593Z,88.68
2022-11-22T05:45:29.699Z,88.81
2022-11-22T05:50:32.423Z,88.80
2022-11-22T05:55:35.439Z,88.60
2022-11-22T06:00:39.559Z,88.52
2022-11-22T06:05:42.352Z,88.61
2022-11-22T06:10:45.112Z,88.49
2022-11-22T06:15:49.213Z,88.59
2022-11-22T06:20:51.973Z,88.44
2022-11-22T06:25:59.484Z,88.64
2022-11-22T06:31:04.189Z,88.18
2022-11-22T06:36:08.592Z,88.13
2022-11-22T06:41:13.137Z,87.58
2022-11-22T06:46:18.372Z,87.82
2022-11-22T06:51:23.514Z,87.86
2022-11-22T06:56:28.235Z,87.59
2022-11-22T07:01:34.757Z,87.49
2022-11-22T07:06:39.360Z,86.70
2022-11-22T07:11:42.148Z,86.38
2022-11-22T07:16:46.231Z,86.21
2022-11-22T07:21:49.589Z,86.16
2022-11-22T07:26:52.349Z,86.27
2022-11-22T07:31:56.519Z,85.64
2022-11-22T07:37:03.550Z,86.32
2022-11-22T07:42:08.973Z,86.75
2022-11-22T07:47:19.816Z,86.28
2022-11-22T07:52:25.501Z,86.55
2022-11-22T07:57:28.306Z,85.85
2022-11-22T08:02:32.620Z,86.21
2022-11-22T08:07:35.451Z,85.56
2022-11-22T08:12:38.316Z,85.25
2022-11-22T08:17:42.759Z,84.31
2022-11-22T08:22:45.572Z,85.16
2022-11-22T08:27:48.312Z,81.36
2022-11-22T08:32:55.422Z,80.81
2022-11-22T08:37:58.258Z,77.87
2022-11-22T08:43:01.077Z,75.79
2022-11-22T08:48:05.362Z,77.49
2022-11-22T08:53:08.160Z,76.20
2022-11-22T08:58:10.965Z,75.93
2022-11-22T09:03:15.223Z,76.11
2022-11-22T09:13:23.830Z,74.67
2022-11-22T09:18:28.029Z,70.20
2022-11-22T09:23:31.300Z,71.14
2022-11-22T09:28:35.041Z,70.80
2022-11-22T09:33:40.748Z,70.44
2022-11-22T09:38:43.898Z,68.50
2022-11-22T09:43:54.594Z,68.98
2022-11-22T09:49:19.447Z,69.52
2022-11-22T09:54:27.166Z,67.97
2022-11-22T09:59:34.104Z,68.40
2022-11-22T10:04:41.167Z,68.16
2022-11-22T10:09:52.190Z,65.59
2022-11-22T10:15:00.043Z,67.33
2022-11-22T10:20:08.234Z,66.27
2022-11-22T10:25:17.415Z,64.35
2022-11-22T10:30:22.251Z,65.08
2022-11-22T10:35:40.020Z,65.32
2022-11-22T10:40:50.859Z,63.96
2022-11-22T10:46:01.175Z,61.76
2022-11-22T10:51:15.563Z,61.56
2022-11-22T10:56:25.880Z,59.99
2022-11-22T11:01:37.026Z,61.97
2022-11-22T11:12:14.526Z,57.64
2022-11-22T11:17:22.169Z,59.53
2022-11-22T11:22:51.821Z,58.11
2022-11-22T11:27:52.271Z,58.97
2022-11-22T11:32:56.551Z,59.19
2022-11-22T11:38:00.712Z,57.01
2022-11-22T11:43:19.995Z,58.35
2022-11-22T11:48:41.107Z,58.99
2022-11-22T11:53:54.732Z,57.22
2022-11-22T11:59:00.258Z,55.29
2022-11-22T12:04:04.924Z,56.36
2022-11-22T12:09:29.628Z,51.69
2022-11-22T12:14:55.548Z,51.56
2022-11-22T12:20:04.009Z,50.36
2022-11-22T12:25:32.489Z,50.47
2022-11-22T12:30:47.389Z,51.60
2022-11-22T12:35:54.836Z,50.60
2022-11-22T12:41:02.743Z,48.98
2022-11-22T12:46:10.854Z,49.02
2022-11-22T12:51:18.841Z,48.14
2022-11-22T12:56:33.545Z,49.21
2022-11-22T13:01:44.297Z,48.33
2022-11-22T13:06:52.624Z,50.21
2022-11-22T13:12:01.534Z,52.42
2022-11-22T13:17:08.403Z,53.10
2022-11-22T13:22:22.640Z,53.15
2022-11-22T13:27:31.761Z,52.50
2022-11-22T13:32:36.090Z,52.14
2022-11-22T13:37:41.417Z,53.21
2022-11-22T13:42:45.542Z,52.78
2022-11-22T13:47:48.599Z,53.38
2022-11-22T13:52:53.683Z,53.45
2022-11-22T13:58:17.847Z,53.49
2022-11-22T14:03:38.374Z,53.21
2022-11-22T14:08:41.474Z,54.11
2022-11-22T14:13:54.140Z,54.17
2022-11-22T14:19:06.969Z,55.01
2022-11-22T14:24:18.383Z,56.44
2022-11-22T14:29:53.793Z,56.99
2022-11-22T14:35:29.502Z,57.26
2022-11-22T14:40:35.933Z,57.71
2022-11-22T14:45:44.308Z,56.96
2022-11-22T14:50:52.456Z,56.89
2022-11-22T14:56:03.642Z,56.42
2022-11-22T15:01:43.696Z,56.46
2022-11-22T15:09:17.860Z,56.54
2022-11-22T15:12:34.579Z,57.14
2022-11-22T16:01:19.372Z,61.01
2022-11-22T16:06:26.476Z,61.40
2022-11-22T16:11:31.699Z,61.32
2022-11-22T16:16:35.403Z,61.06
2022-11-22T16:21:39.478Z,61.00
2022-11-22T16:26:51.751Z,61.06
2022-11-22T16:32:01.023Z,61.46
2022-11-22T16:37:28.326Z,62.12
2022-11-22T16:42:33.188Z,62.69
2022-11-22T16:47:36.038Z,62.96
2022-11-22T16:52:40.670Z,63.66
2022-11-22T16:57:43.927Z,63.86
2022-11-22T17:02:46.758Z,64.13
2022-11-22T17:07:50.882Z,64.65
2022-11-22T17:12:54.241Z,65.31
2022-11-22T17:17:57.018Z,65.41
2022-11-22T17:23:01.325Z,66.04
2022-11-22T17:28:04.179Z,66.40
2022-11-22T17:33:06.995Z,66.14
2022-11-22T17:38:12.327Z,66.21
2022-11-22T17:43:15.098Z,66.01
2022-11-22T17:48:18.261Z,66.13
2022-11-22T17:53:22.331Z,66.03
2022-11-22T17:58:25.095Z,65.98
2022-11-22T18:03:27.885Z,65.90
2022-11-22T18:08:32.061Z,65.94
2022-11-22T18:13:36.564Z,66.16
2022-11-22T18:18:57.111Z,65.94
2022-11-22T18:24:02.675Z,66.45
2022-11-22T18:34:29.191Z,66.67
2022-11-22T18:39:35.759Z,66.99
2022-11-22T18:44:39.187Z,66.86
2022-11-22T18:49:41.982Z,67.11
2022-11-22T18:54:46.643Z,66.96
2022-11-22T18:59:49.363Z,66.95
2022-11-22T19:04:53.458Z,67.72
2022-11-22T19:09:58.671Z,67.61
2022-11-22T19:15:01.704Z,67.47
2022-11-22T19:20:05.613Z,67.40
2022-11-22T19:25:10.437Z,67.70
2022-11-22T19:30:14.625Z,67.58
2022-11-22T19:35:17.588Z,68.20
2022-11-22T19:40:21.681Z,68.01
2022-11-22T19:45:24.439Z,68.10
2022-11-22T19:50:27.121Z,68.33
2022-11-22T19:55:31.178Z,68.41
2022-11-22T20:00:34.252Z,68.73
2022-11-22T20:05:36.994Z,68.41
2022-11-22T20:10:41.027Z,68.66
2022-11-22T20:15:43.707Z,68.84
2022-11-22T20:20:46.279Z,69.33
2022-11-22T20:25:50.381Z,69.26
2022-11-22T20:30:53.863Z,69.36
2022-11-22T20:36:02.834Z,69.21
2022-11-22T20:41:07.557Z,68.99
2022-11-22T20:46:12.291Z,68.76
2022-11-22T20:51:17.287Z,68.68
2022-11-22T20:56:21.891Z,68.75
2022-11-22T21:01:26.890Z,68.84
2022-11-22T21:06:29.874Z,68.84
2022-11-22T21:11:34.844Z,68.53
2022-11-22T21:16:37.631Z,68.71
2022-11-22T21:21:40.431Z,69.31
2022-11-22T21:26:44.565Z,68.72
2022-11-22T21:31:47.368Z,69.82
2022-11-22T21:36:50.176Z,71.58
2022-11-22T21:41:54.767Z,72.17
2022-11-22T21:46:57.489Z,72.40
2022-11-22T21:52:00.220Z,72.27
2022-11-22T21:57:04.588Z,72.22
2022-11-22T22:02:07.379Z,72.01
2022-11-22T22:07:29.530Z,72.69
2022-11-22T22:12:35.231Z,73.59
2022-11-22T22:17:37.987Z,75.08
2022-11-22T22:22:40.722Z,75.33
2022-11-22T22:27:45.707Z,75.50
2022-11-22T22:32:48.436Z,75.10
2022-11-22T22:37:51.184Z,74.49
2022-11-22T22:42:55.238Z,73.93
2022-11-22T22:47:59.340Z,73.74
2022-11-22T22:53:02.137Z,73.16
2022-11-22T22:58:07.060Z,72.87
2022-11-22T23:03:12.181Z,72.95
2022-11-22T23:08:15.114Z,73.21
2022-11-22T23:13:19.312Z,73.05
2022-11-22T23:18:22.066Z,72.73
2022-11-22T23:23:24.856Z,72.92
2022-11-22T23:28:29.982Z,72.82
2022-11-22T23:33:32.871Z,72.40
2022-11-22T23:38:36.065Z,72.43
2022-11-22T23:43:40.183Z,72.37
2022-11-22T23:48:43.116Z,72.24
2022-11-22T23:53:45.894Z,72.08
2022-11-22T23:58:50.585Z,72.18
